PASN/SNP METAR and TAF weather

Enter ICAO airport designator
Station Type Date Time Source
PASN METAR 2022/09/26 08:53 UTC NOAA

PASN 260853Z AUTO 31006KT 10SM SCT028 00/M02 A2975 RMK AO2 SLP074 T00001022 400781011 58011 TSNO $


Station Type Date Time Source
PASN Decoded METAR 2022/09/26 08:53 UTC NOAA

ST PAUL ISLAND AIRPORT, AK, United States (PASN) 57-10N 170-13W 9M
Sep 26, 2022 - 04:53 AM EDT / 2022.09.26 0853 UTC
Wind: from the NW (310 degrees) at 7 MPH (6 KT):0
Visibility: 10 mile(s):0
Sky conditions: partly cloudy
Temperature: 32.0 F (0.0 C)
Windchill: 24 F (-4 C):1
Dew Point: 28.0 F (-2.2 C)
Relative Humidity: 85%
Pressure (altimeter): 29.75 in. Hg (1007 hPa)
Pressure tendency: 0.03 inches (1.1 hPa) lower than three hours ago
ob: PASN 260853Z AUTO 31006KT 10SM SCT028 00/M02 A2975 RMK AO2 SLP074 T00001022 400781011 58011 TSNO
cycle: 9

Station Type Date Time Source
PASN TAF 2022/09/26 06:33 UTC NOAA

TAF PASN 260531Z 2606/2706 VRB05KT P6SM BKN050
FM270100 10012G20KT P6SM OVC025

Example: see airport list